sensor_id;sensor_type;location;lat;lon;timestamp;P1;durP1;ratioP1;P2;durP2;ratioP2
64615;SDS011;51027;42.162;24.754;2023-07-28T03:31:11;13.98;;;5.30;;
64615;SDS011;51027;42.162;24.754;2023-07-28T03:33:37;15.68;;;5.43;;
64615;SDS011;51027;42.162;24.754;2023-07-28T03:36:02;12.65;;;4.80;;
64615;SDS011;51027;42.162;24.754;2023-07-28T03:38:28;15.48;;;5.57;;
64615;SDS011;51027;42.162;24.754;2023-07-28T03:40:53;11.82;;;5.45;;
64615;SDS011;51027;42.162;24.754;2023-07-28T03:43:19;14.68;;;5.43;;
64615;SDS011;51027;42.162;24.754;2023-07-28T03:45:46;13.57;;;5.40;;
64615;SDS011;51027;42.162;24.754;2023-07-28T03:48:17;13.80;;;5.30;;
64615;SDS011;51027;42.162;24.754;2023-07-28T03:50:48;13.93;;;5.40;;
64615;SDS011;51027;42.162;24.754;2023-07-28T03:53:17;19.20;;;6.65;;
64615;SDS011;51027;42.162;24.754;2023-07-28T03:55:46;16.38;;;6.60;;
64615;SDS011;51027;42.162;24.754;2023-07-28T03:58:15;13.43;;;5.80;;
64615;SDS011;51027;42.162;24.754;2023-07-28T04:00:44;16.00;;;7.22;;
64615;SDS011;51027;42.162;24.754;2023-07-28T04:03:14;15.48;;;7.28;;
64615;SDS011;51027;42.162;24.754;2023-07-28T04:05:42;16.17;;;7.03;;
64615;SDS011;51027;42.162;24.754;2023-07-28T04:08:11;21.23;;;8.10;;
64615;SDS011;51027;42.162;24.754;2023-07-28T04:10:36;16.48;;;7.93;;
64615;SDS011;51027;42.162;24.754;2023-07-28T04:13:02;22.13;;;8.55;;
64615;SDS011;51027;42.162;24.754;2023-07-28T04:15:27;18.10;;;8.30;;
64615;SDS011;51027;42.162;24.754;2023-07-28T04:17:53;18.92;;;8.18;;
64615;SDS011;51027;42.162;24.754;2023-07-28T04:20:18;17.38;;;8.43;;
64615;SDS011;51027;42.162;24.754;2023-07-28T04:22:44;18.42;;;8.55;;
64615;SDS011;51027;42.162;24.754;2023-07-28T04:25:09;20.27;;;7.45;;
64615;SDS011;51027;42.162;24.754;2023-07-28T04:27:35;17.95;;;8.55;;
64615;SDS011;51027;42.162;24.754;2023-07-28T04:30:00;17.35;;;8.70;;
64615;SDS011;51027;42.162;24.754;2023-07-28T04:32:26;18.40;;;9.07;;
64615;SDS011;51027;42.162;24.754;2023-07-28T04:34:51;18.80;;;9.00;;
64615;SDS011;51027;42.162;24.754;2023-07-28T04:37:18;18.55;;;8.70;;
64615;SDS011;51027;42.162;24.754;2023-07-28T04:39:44;16.38;;;7.65;;
64615;SDS011;51027;42.162;24.754;2023-07-28T04:42:10;18.85;;;8.25;;
64615;SDS011;51027;42.162;24.754;2023-07-28T04:44:37;15.73;;;6.88;;
64615;SDS011;51027;42.162;24.754;2023-07-28T04:47:04;17.27;;;7.93;;
64615;SDS011;51027;42.162;24.754;2023-07-28T04:49:30;17.27;;;7.32;;
64615;SDS011;51027;42.162;24.754;2023-07-28T04:52:00;16.60;;;7.45;;
64615;SDS011;51027;42.162;24.754;2023-07-28T04:54:26;19.90;;;7.63;;
64615;SDS011;51027;42.162;24.754;2023-07-28T04:56:51;16.67;;;7.28;;
64615;SDS011;51027;42.162;24.754;2023-07-28T04:59:18;17.25;;;6.82;;
64615;SDS011;51027;42.162;24.754;2023-07-28T05:01:44;17.05;;;7.57;;
64615;SDS011;51027;42.162;24.754;2023-07-28T05:04:09;16.05;;;6.85;;
64615;SDS011;51027;42.162;24.754;2023-07-28T05:06:34;16.02;;;6.60;;
64615;SDS011;51027;42.162;24.754;2023-07-28T05:09:00;15.27;;;6.60;;
64615;SDS011;51027;42.162;24.754;2023-07-28T05:11:25;16.25;;;7.00;;
64615;SDS011;51027;42.162;24.754;2023-07-28T05:13:51;18.90;;;7.93;;
64615;SDS011;51027;42.162;24.754;2023-07-28T05:16:16;16.00;;;6.05;;
64615;SDS011;51027;42.162;24.754;2023-07-28T05:18:42;14.18;;;6.47;;
64615;SDS011;51027;42.162;24.754;2023-07-28T05:21:13;15.20;;;5.40;;
64615;SDS011;51027;42.162;24.754;2023-07-28T05:23:38;15.77;;;5.70;;
64615;SDS011;51027;42.162;24.754;2023-07-28T05:26:03;15.93;;;5.85;;
64615;SDS011;51027;42.162;24.754;2023-07-28T05:28:29;27.20;;;20.00;;
64615;SDS011;51027;42.162;24.754;2023-07-28T05:31:02;14.02;;;5.15;;
64615;SDS011;51027;42.162;24.754;2023-07-28T05:33:29;11.82;;;4.63;;
64615;SDS011;51027;42.162;24.754;2023-07-28T05:36:04;14.18;;;4.65;;
64615;SDS011;51027;42.162;24.754;2023-07-28T05:38:29;11.57;;;4.95;;
64615;SDS011;51027;42.162;24.754;2023-07-28T05:40:56;14.20;;;4.95;;
64615;SDS011;51027;42.162;24.754;2023-07-28T05:43:22;12.35;;;5.03;;
64615;SDS011;51027;42.162;24.754;2023-07-28T05:45:51;12.23;;;4.38;;
64615;SDS011;51027;42.162;24.754;2023-07-28T05:48:16;12.25;;;4.72;;
64615;SDS011;51027;42.162;24.754;2023-07-28T05:50:42;13.35;;;5.13;;
64615;SDS011;51027;42.162;24.754;2023-07-28T05:53:07;15.60;;;5.35;;
64615;SDS011;51027;42.162;24.754;2023-07-28T05:55:33;14.10;;;4.43;;
64615;SDS011;51027;42.162;24.754;2023-07-28T05:57:58;13.20;;;4.50;;
64615;SDS011;51027;42.162;24.754;2023-07-28T06:00:24;10.80;;;4.78;;
64615;SDS011;51027;42.162;24.754;2023-07-28T06:02:49;12.60;;;4.50;;
64615;SDS011;51027;42.162;24.754;2023-07-28T06:05:14;11.63;;;4.20;;
64615;SDS011;51027;42.162;24.754;2023-07-28T06:07:40;9.88;;;4.40;;
64615;SDS011;51027;42.162;24.754;2023-07-28T06:10:06;11.90;;;4.32;;
64615;SDS011;51027;42.162;24.754;2023-07-28T06:12:32;13.95;;;4.60;;
64615;SDS011;51027;42.162;24.754;2023-07-28T06:14:57;12.15;;;4.43;;
64615;SDS011;51027;42.162;24.754;2023-07-28T06:17:23;11.82;;;4.25;;
64615;SDS011;51027;42.162;24.754;2023-07-28T06:19:48;12.85;;;5.20;;
64615;SDS011;51027;42.162;24.754;2023-07-28T06:22:14;11.48;;;4.53;;
64615;SDS011;51027;42.162;24.754;2023-07-28T06:24:40;12.57;;;4.75;;
64615;SDS011;51027;42.162;24.754;2023-07-28T06:27:07;12.40;;;4.82;;
64615;SDS011;51027;42.162;24.754;2023-07-28T06:29:34;10.70;;;4.40;;
64615;SDS011;51027;42.162;24.754;2023-07-28T06:32:00;11.35;;;4.60;;
64615;SDS011;51027;42.162;24.754;2023-07-28T06:34:26;12.88;;;4.90;;
64615;SDS011;51027;42.162;24.754;2023-07-28T06:36:51;14.07;;;4.97;;
64615;SDS011;51027;42.162;24.754;2023-07-28T06:39:17;13.30;;;5.30;;
64615;SDS011;51027;42.162;24.754;2023-07-28T06:41:42;12.32;;;4.75;;
64615;SDS011;51027;42.162;24.754;2023-07-28T06:44:08;11.40;;;4.22;;
64615;SDS011;51027;42.162;24.754;2023-07-28T06:46:34;12.68;;;4.53;;
64615;SDS011;51027;42.162;24.754;2023-07-28T06:48:59;14.02;;;4.63;;
64615;SDS011;51027;42.162;24.754;2023-07-28T06:51:25;13.35;;;4.82;;
64615;SDS011;51027;42.162;24.754;2023-07-28T06:53:53;11.68;;;4.28;;
64615;SDS011;51027;42.162;24.754;2023-07-28T06:56:22;13.50;;;4.57;;
64615;SDS011;51027;42.162;24.754;2023-07-28T06:58:53;10.85;;;3.60;;
64615;SDS011;51027;42.162;24.754;2023-07-28T07:01:18;9.25;;;3.88;;
64615;SDS011;51027;42.162;24.754;2023-07-28T07:03:44;10.02;;;3.70;;
64615;SDS011;51027;42.162;24.754;2023-07-28T07:06:13;7.70;;;3.10;;
64615;SDS011;51027;42.162;24.754;2023-07-28T07:08:39;7.20;;;3.10;;
64615;SDS011;51027;42.162;24.754;2023-07-28T07:11:09;8.38;;;3.13;;
64615;SDS011;51027;42.162;24.754;2023-07-28T07:13:44;10.82;;;3.58;;
64615;SDS011;51027;42.162;24.754;2023-07-28T07:16:15;10.18;;;3.50;;
64615;SDS011;51027;42.162;24.754;2023-07-28T07:18:44;9.05;;;3.47;;
64615;SDS011;51027;42.162;24.754;2023-07-28T07:21:10;6.38;;;2.90;;
64615;SDS011;51027;42.162;24.754;2023-07-28T07:23:36;9.70;;;3.35;;
64615;SDS011;51027;42.162;24.754;2023-07-28T07:26:02;7.80;;;3.40;;
64615;SDS011;51027;42.162;24.754;2023-07-28T07:28:27;11.27;;;3.80;;
64615;SDS011;51027;42.162;24.754;2023-07-28T07:30:56;7.45;;;3.00;;
64615;SDS011;51027;42.162;24.754;2023-07-28T07:33:21;8.80;;;3.13;;
64615;SDS011;51027;42.162;24.754;2023-07-28T07:35:47;9.77;;;3.33;;
64615;SDS011;51027;42.162;24.754;2023-07-28T07:38:12;6.78;;;3.10;;
64615;SDS011;51027;42.162;24.754;2023-07-28T07:40:38;10.63;;;3.50;;
64615;SDS011;51027;42.162;24.754;2023-07-28T07:43:04;7.05;;;3.10;;
64615;SDS011;51027;42.162;24.754;2023-07-28T07:45:30;9.70;;;3.20;;
64615;SDS011;51027;42.162;24.754;2023-07-28T07:47:55;8.40;;;3.00;;
64615;SDS011;51027;42.162;24.754;2023-07-28T07:50:21;7.45;;;2.97;;
64615;SDS011;51027;42.162;24.754;2023-07-28T07:52:46;13.27;;;3.58;;
64615;SDS011;51027;42.162;24.754;2023-07-28T07:55:12;10.32;;;3.35;;
64615;SDS011;51027;42.162;24.754;2023-07-28T07:57:41;6.90;;;3.03;;
64615;SDS011;51027;42.162;24.754;2023-07-28T08:00:15;8.40;;;2.83;;
64615;SDS011;51027;42.162;24.754;2023-07-28T08:02:41;9.35;;;3.50;;
64615;SDS011;51027;42.162;24.754;2023-07-28T08:05:06;7.60;;;3.08;;
64615;SDS011;51027;42.162;24.754;2023-07-28T08:07:32;7.93;;;2.97;;
64615;SDS011;51027;42.162;24.754;2023-07-28T08:09:59;15.52;;;3.92;;
64615;SDS011;51027;42.162;24.754;2023-07-28T08:12:25;9.82;;;3.10;;
64615;SDS011;51027;42.162;24.754;2023-07-28T08:14:50;7.40;;;2.92;;
64615;SDS011;51027;42.162;24.754;2023-07-28T08:17:16;6.28;;;2.90;;
64615;SDS011;51027;42.162;24.754;2023-07-28T08:19:41;12.75;;;3.92;;
64615;SDS011;51027;42.162;24.754;2023-07-28T08:22:07;9.93;;;3.33;;
64615;SDS011;51027;42.162;24.754;2023-07-28T08:24:32;9.32;;;3.20;;
64615;SDS011;51027;42.162;24.754;2023-07-28T08:26:58;6.53;;;3.05;;
64615;SDS011;51027;42.162;24.754;2023-07-28T08:29:23;8.45;;;3.25;;
64615;SDS011;51027;42.162;24.754;2023-07-28T08:31:50;9.70;;;3.85;;
64615;SDS011;51027;42.162;24.754;2023-07-28T08:34:16;9.30;;;3.47;;
64615;SDS011;51027;42.162;24.754;2023-07-28T08:36:42;8.20;;;3.17;;
64615;SDS011;51027;42.162;24.754;2023-07-28T08:39:08;7.13;;;2.90;;
64615;SDS011;51027;42.162;24.754;2023-07-28T08:41:34;8.90;;;3.05;;
64615;SDS011;51027;42.162;24.754;2023-07-28T08:44:00;7.20;;;3.08;;
64615;SDS011;51027;42.162;24.754;2023-07-28T08:46:26;7.35;;;2.90;;
64615;SDS011;51027;42.162;24.754;2023-07-28T08:48:52;6.78;;;2.85;;
64615;SDS011;51027;42.162;24.754;2023-07-28T08:51:23;8.45;;;3.00;;
64615;SDS011;51027;42.162;24.754;2023-07-28T08:53:48;9.95;;;3.00;;
64615;SDS011;51027;42.162;24.754;2023-07-28T08:56:14;8.88;;;3.30;;
64615;SDS011;51027;42.162;24.754;2023-07-28T08:58:40;11.15;;;3.83;;
64615;SDS011;51027;42.162;24.754;2023-07-28T09:01:05;9.40;;;3.30;;
64615;SDS011;51027;42.162;24.754;2023-07-28T09:03:34;8.02;;;3.03;;
64615;SDS011;51027;42.162;24.754;2023-07-28T09:06:02;7.03;;;2.85;;
64615;SDS011;51027;42.162;24.754;2023-07-28T09:08:31;8.32;;;3.10;;
64615;SDS011;51027;42.162;24.754;2023-07-28T09:10:57;9.90;;;2.92;;
64615;SDS011;51027;42.162;24.754;2023-07-28T09:13:32;7.88;;;2.90;;
64615;SDS011;51027;42.162;24.754;2023-07-28T09:16:01;8.10;;;3.13;;
64615;SDS011;51027;42.162;24.754;2023-07-28T09:18:26;7.93;;;2.78;;
64615;SDS011;51027;42.162;24.754;2023-07-28T09:20:55;7.18;;;3.15;;
64615;SDS011;51027;42.162;24.754;2023-07-28T09:23:27;7.35;;;2.95;;
64615;SDS011;51027;42.162;24.754;2023-07-28T09:26:00;8.27;;;2.70;;
64615;SDS011;51027;42.162;24.754;2023-07-28T09:28:40;5.85;;;2.78;;
64615;SDS011;51027;42.162;24.754;2023-07-28T09:31:07;7.80;;;2.80;;
64615;SDS011;51027;42.162;24.754;2023-07-28T09:33:33;7.05;;;2.80;;
64615;SDS011;51027;42.162;24.754;2023-07-28T09:36:13;7.10;;;2.70;;
64615;SDS011;51027;42.162;24.754;2023-07-28T09:38:43;7.35;;;3.03;;
64615;SDS011;51027;42.162;24.754;2023-07-28T09:41:09;9.15;;;2.92;;
64615;SDS011;51027;42.162;24.754;2023-07-28T09:43:36;9.48;;;2.90;;
64615;SDS011;51027;42.162;24.754;2023-07-28T09:46:03;6.38;;;2.90;;
64615;SDS011;51027;42.162;24.754;2023-07-28T09:48:31;7.05;;;2.70;;
64615;SDS011;51027;42.162;24.754;2023-07-28T09:51:00;6.10;;;2.78;;
64615;SDS011;51027;42.162;24.754;2023-07-28T09:53:30;6.68;;;2.90;;
64615;SDS011;51027;42.162;24.754;2023-07-28T09:56:01;9.77;;;2.90;;
64615;SDS011;51027;42.162;24.754;2023-07-28T09:58:27;6.55;;;2.80;;
64615;SDS011;51027;42.162;24.754;2023-07-28T10:00:59;6.80;;;2.83;;
64615;SDS011;51027;42.162;24.754;2023-07-28T10:03:26;7.43;;;2.80;;
64615;SDS011;51027;42.162;24.754;2023-07-28T10:05:51;8.68;;;2.80;;
64615;SDS011;51027;42.162;24.754;2023-07-28T10:08:17;9.27;;;2.70;;
64615;SDS011;51027;42.162;24.754;2023-07-28T10:10:44;10.13;;;2.95;;
64615;SDS011;51027;42.162;24.754;2023-07-28T10:13:18;9.48;;;2.88;;
64615;SDS011;51027;42.162;24.754;2023-07-28T10:15:45;7.82;;;2.75;;
64615;SDS011;51027;42.162;24.754;2023-07-28T10:18:13;7.35;;;2.97;;
64615;SDS011;51027;42.162;24.754;2023-07-28T10:20:39;8.77;;;3.00;;
64615;SDS011;51027;42.162;24.754;2023-07-28T10:23:19;8.10;;;2.80;;
64615;SDS011;51027;42.162;24.754;2023-07-28T10:25:46;6.82;;;2.70;;
64615;SDS011;51027;42.162;24.754;2023-07-28T10:28:25;7.43;;;2.97;;
64615;SDS011;51027;42.162;24.754;2023-07-28T10:30:54;4.97;;;2.67;;
64615;SDS011;51027;42.162;24.754;2023-07-28T10:33:26;8.43;;;2.92;;
64615;SDS011;51027;42.162;24.754;2023-07-28T10:35:54;5.68;;;2.92;;
64615;SDS011;51027;42.162;24.754;2023-07-28T10:38:29;8.05;;;2.95;;
64615;SDS011;51027;42.162;24.754;2023-07-28T10:43:51;5.90;;;2.72;;
64615;SDS011;51027;42.162;24.754;2023-07-28T10:46:17;8.85;;;2.67;;
64615;SDS011;51027;42.162;24.754;2023-07-28T10:51:22;9.15;;;3.17;;
64615;SDS011;51027;42.162;24.754;2023-07-28T10:53:51;10.82;;;3.90;;
64615;SDS011;51027;42.162;24.754;2023-07-28T10:56:17;7.80;;;3.03;;
64615;SDS011;51027;42.162;24.754;2023-07-28T10:58:43;6.88;;;2.72;;
64615;SDS011;51027;42.162;24.754;2023-07-28T11:01:10;7.40;;;2.88;;
64615;SDS011;51027;42.162;24.754;2023-07-28T11:03:36;8.60;;;2.92;;
64615;SDS011;51027;42.162;24.754;2023-07-28T11:06:02;5.95;;;2.63;;
64615;SDS011;51027;42.162;24.754;2023-07-28T11:08:28;6.53;;;2.72;;
64615;SDS011;51027;42.162;24.754;2023-07-28T11:10:53;5.78;;;2.47;;
64615;SDS011;51027;42.162;24.754;2023-07-28T11:13:19;5.95;;;2.63;;
64615;SDS011;51027;42.162;24.754;2023-07-28T11:15:45;7.70;;;2.70;;
64615;SDS011;51027;42.162;24.754;2023-07-28T11:18:19;10.85;;;3.15;;
64615;SDS011;51027;42.162;24.754;2023-07-28T11:20:46;7.35;;;3.17;;
64615;SDS011;51027;42.162;24.754;2023-07-28T11:23:13;8.23;;;2.88;;
64615;SDS011;51027;42.162;24.754;2023-07-28T11:25:39;8.82;;;3.03;;
64615;SDS011;51027;42.162;24.754;2023-07-28T11:28:04;8.68;;;3.38;;
64615;SDS011;51027;42.162;24.754;2023-07-28T11:30:31;7.32;;;2.85;;
64615;SDS011;51027;42.162;24.754;2023-07-28T11:33:06;9.38;;;2.80;;
64615;SDS011;51027;42.162;24.754;2023-07-28T11:35:40;8.30;;;3.28;;
64615;SDS011;51027;42.162;24.754;2023-07-28T11:38:15;8.60;;;3.20;;
64615;SDS011;51027;42.162;24.754;2023-07-28T11:40:44;7.72;;;3.08;;
64615;SDS011;51027;42.162;24.754;2023-07-28T11:43:10;9.07;;;3.03;;
64615;SDS011;51027;42.162;24.754;2023-07-28T11:45:36;8.00;;;2.65;;
64615;SDS011;51027;42.162;24.754;2023-07-28T11:48:05;7.88;;;2.67;;
64615;SDS011;51027;42.162;24.754;2023-07-28T11:50:38;5.40;;;2.75;;
64615;SDS011;51027;42.162;24.754;2023-07-28T11:53:05;6.90;;;2.88;;
64615;SDS011;51027;42.162;24.754;2023-07-28T11:55:31;6.55;;;2.70;;
64615;SDS011;51027;42.162;24.754;2023-07-28T11:57:59;9.57;;;3.38;;
64615;SDS011;51027;42.162;24.754;2023-07-28T12:00:36;7.35;;;2.80;;
64615;SDS011;51027;42.162;24.754;2023-07-28T12:03:11;7.80;;;2.85;;
64615;SDS011;51027;42.162;24.754;2023-07-28T12:05:38;8.38;;;2.83;;
64615;SDS011;51027;42.162;24.754;2023-07-28T12:08:04;11.15;;;3.50;;
64615;SDS011;51027;42.162;24.754;2023-07-28T12:10:32;6.55;;;2.90;;
64615;SDS011;51027;42.162;24.754;2023-07-28T12:13:08;6.00;;;2.72;;
64615;SDS011;51027;42.162;24.754;2023-07-28T12:15:34;7.65;;;2.90;;
64615;SDS011;51027;42.162;24.754;2023-07-28T12:20:37;5.28;;;2.50;;
64615;SDS011;51027;42.162;24.754;2023-07-28T12:23:03;6.78;;;2.70;;
64615;SDS011;51027;42.162;24.754;2023-07-28T12:25:29;5.40;;;2.50;;
64615;SDS011;51027;42.162;24.754;2023-07-28T12:27:56;5.13;;;2.47;;
64615;SDS011;51027;42.162;24.754;2023-07-28T12:30:21;12.98;;;3.53;;
64615;SDS011;51027;42.162;24.754;2023-07-28T12:32:47;6.32;;;2.72;;
64615;SDS011;51027;42.162;24.754;2023-07-28T12:35:13;8.80;;;2.78;;
64615;SDS011;51027;42.162;24.754;2023-07-28T12:37:38;5.97;;;2.90;;
64615;SDS011;51027;42.162;24.754;2023-07-28T12:40:04;7.82;;;3.10;;
64615;SDS011;51027;42.162;24.754;2023-07-28T12:43:01;6.90;;;2.67;;
64615;SDS011;51027;42.162;24.754;2023-07-28T12:45:27;6.63;;;2.65;;
64615;SDS011;51027;42.162;24.754;2023-07-28T12:47:53;7.38;;;2.60;;
64615;SDS011;51027;42.162;24.754;2023-07-28T12:50:21;7.18;;;2.70;;
64615;SDS011;51027;42.162;24.754;2023-07-28T12:52:47;6.15;;;2.80;;
64615;SDS011;51027;42.162;24.754;2023-07-28T12:55:13;5.80;;;2.70;;
64615;SDS011;51027;42.162;24.754;2023-07-28T12:57:39;7.57;;;2.67;;
64615;SDS011;51027;42.162;24.754;2023-07-28T13:00:05;5.97;;;2.53;;
64615;SDS011;51027;42.162;24.754;2023-07-28T13:02:39;4.70;;;2.47;;
64615;SDS011;51027;42.162;24.754;2023-07-28T13:05:06;8.70;;;3.15;;
64615;SDS011;51027;42.162;24.754;2023-07-28T13:07:33;6.45;;;2.67;;
64615;SDS011;51027;42.162;24.754;2023-07-28T13:09:58;8.00;;;3.28;;
64615;SDS011;51027;42.162;24.754;2023-07-28T13:12:23;8.13;;;3.10;;
64615;SDS011;51027;42.162;24.754;2023-07-28T13:14:49;9.82;;;3.13;;
64615;SDS011;51027;42.162;24.754;2023-07-28T13:17:14;11.07;;;3.80;;
64615;SDS011;51027;42.162;24.754;2023-07-28T13:19:41;8.10;;;2.92;;
64615;SDS011;51027;42.162;24.754;2023-07-28T13:22:07;5.90;;;2.60;;
64615;SDS011;51027;42.162;24.754;2023-07-28T13:24:32;8.27;;;2.95;;
64615;SDS011;51027;42.162;24.754;2023-07-28T13:26:58;12.43;;;2.92;;
64615;SDS011;51027;42.162;24.754;2023-07-28T13:29:23;7.35;;;2.92;;
64615;SDS011;51027;42.162;24.754;2023-07-28T13:31:49;6.80;;;2.72;;
64615;SDS011;51027;42.162;24.754;2023-07-28T13:34:14;6.68;;;2.75;;
64615;SDS011;51027;42.162;24.754;2023-07-28T13:36:39;6.47;;;2.67;;
64615;SDS011;51027;42.162;24.754;2023-07-28T13:39:05;6.13;;;2.70;;
64615;SDS011;51027;42.162;24.754;2023-07-28T13:41:31;7.28;;;2.70;;
64615;SDS011;51027;42.162;24.754;2023-07-28T13:43:56;7.95;;;2.90;;
64615;SDS011;51027;42.162;24.754;2023-07-28T13:46:22;6.65;;;2.80;;
64615;SDS011;51027;42.162;24.754;2023-07-28T13:48:47;7.50;;;2.80;;
64615;SDS011;51027;42.162;24.754;2023-07-28T13:51:13;10.00;;;3.10;;
64615;SDS011;51027;42.162;24.754;2023-07-28T13:53:38;8.57;;;2.85;;
64615;SDS011;51027;42.162;24.754;2023-07-28T13:56:04;9.68;;;2.90;;
64615;SDS011;51027;42.162;24.754;2023-07-28T13:58:30;11.85;;;3.65;;
64615;SDS011;51027;42.162;24.754;2023-07-28T14:00:55;8.38;;;2.92;;
64615;SDS011;51027;42.162;24.754;2023-07-28T14:03:21;9.18;;;3.35;;
64615;SDS011;51027;42.162;24.754;2023-07-28T14:05:47;8.25;;;2.78;;
64615;SDS011;51027;42.162;24.754;2023-07-28T14:08:12;7.30;;;2.95;;
64615;SDS011;51027;42.162;24.754;2023-07-28T14:10:37;8.82;;;2.95;;
64615;SDS011;51027;42.162;24.754;2023-07-28T14:13:03;7.30;;;3.10;;
64615;SDS011;51027;42.162;24.754;2023-07-28T14:15:29;8.40;;;2.97;;
64615;SDS011;51027;42.162;24.754;2023-07-28T14:17:54;6.40;;;3.00;;
64615;SDS011;51027;42.162;24.754;2023-07-28T14:20:20;7.03;;;2.92;;
64615;SDS011;51027;42.162;24.754;2023-07-28T14:22:45;9.63;;;3.22;;
64615;SDS011;51027;42.162;24.754;2023-07-28T14:25:11;7.72;;;2.90;;
64615;SDS011;51027;42.162;24.754;2023-07-28T14:27:36;8.57;;;2.83;;
64615;SDS011;51027;42.162;24.754;2023-07-28T14:30:01;8.18;;;3.10;;
64615;SDS011;51027;42.162;24.754;2023-07-28T14:32:27;6.32;;;3.10;;
64615;SDS011;51027;42.162;24.754;2023-07-28T14:34:52;8.90;;;3.17;;
64615;SDS011;51027;42.162;24.754;2023-07-28T14:37:18;7.75;;;3.30;;
64615;SDS011;51027;42.162;24.754;2023-07-28T14:39:44;6.50;;;2.85;;
64615;SDS011;51027;42.162;24.754;2023-07-28T14:42:09;8.43;;;3.25;;
64615;SDS011;51027;42.162;24.754;2023-07-28T14:44:35;10.63;;;3.30;;
64615;SDS011;51027;42.162;24.754;2023-07-28T14:47:01;10.98;;;3.35;;
64615;SDS011;51027;42.162;24.754;2023-07-28T14:49:27;8.75;;;3.10;;
64615;SDS011;51027;42.162;24.754;2023-07-28T14:51:56;8.50;;;3.38;;
64615;SDS011;51027;42.162;24.754;2023-07-28T14:54:21;7.30;;;3.10;;
64615;SDS011;51027;42.162;24.754;2023-07-28T14:56:47;7.25;;;3.03;;
64615;SDS011;51027;42.162;24.754;2023-07-28T14:59:12;7.97;;;3.03;;
64615;SDS011;51027;42.162;24.754;2023-07-28T15:01:38;8.38;;;3.20;;
64615;SDS011;51027;42.162;24.754;2023-07-28T15:04:03;8.10;;;3.28;;
64615;SDS011;51027;42.162;24.754;2023-07-28T15:06:29;10.57;;;3.80;;
64615;SDS011;51027;42.162;24.754;2023-07-28T15:08:55;9.88;;;3.53;;
64615;SDS011;51027;42.162;24.754;2023-07-28T15:11:21;8.02;;;3.35;;
64615;SDS011;51027;42.162;24.754;2023-07-28T15:13:46;10.93;;;3.38;;
64615;SDS011;51027;42.162;24.754;2023-07-28T15:16:12;8.60;;;3.25;;
64615;SDS011;51027;42.162;24.754;2023-07-28T15:18:38;8.40;;;3.08;;
64615;SDS011;51027;42.162;24.754;2023-07-28T15:21:03;10.63;;;3.38;;
64615;SDS011;51027;42.162;24.754;2023-07-28T15:23:29;14.88;;;5.18;;
64615;SDS011;51027;42.162;24.754;2023-07-28T15:25:55;11.40;;;4.63;;
64615;SDS011;51027;42.162;24.754;2023-07-28T15:28:22;10.75;;;3.53;;
64615;SDS011;51027;42.162;24.754;2023-07-28T15:30:48;11.48;;;3.88;;
64615;SDS011;51027;42.162;24.754;2023-07-28T15:33:19;12.83;;;3.80;;
64615;SDS011;51027;42.162;24.754;2023-07-28T15:35:45;9.48;;;3.00;;
64615;SDS011;51027;42.162;24.754;2023-07-28T15:38:11;8.63;;;3.50;;
64615;SDS011;51027;42.162;24.754;2023-07-28T15:40:37;8.88;;;3.22;;
64615;SDS011;51027;42.162;24.754;2023-07-28T15:43:02;9.98;;;3.65;;
64615;SDS011;51027;42.162;24.754;2023-07-28T15:45:28;11.00;;;3.33;;
64615;SDS011;51027;42.162;24.754;2023-07-28T15:47:53;12.20;;;4.50;;
64615;SDS011;51027;42.162;24.754;2023-07-28T15:50:18;14.63;;;5.68;;
64615;SDS011;51027;42.162;24.754;2023-07-28T15:52:44;13.07;;;5.07;;
64615;SDS011;51027;42.162;24.754;2023-07-28T15:55:10;8.15;;;3.30;;
64615;SDS011;51027;42.162;24.754;2023-07-28T15:57:35;7.35;;;3.20;;
64615;SDS011;51027;42.162;24.754;2023-07-28T16:00:01;10.27;;;3.58;;
64615;SDS011;51027;42.162;24.754;2023-07-28T16:02:26;7.07;;;3.20;;
64615;SDS011;51027;42.162;24.754;2023-07-28T16:04:51;9.20;;;3.45;;
64615;SDS011;51027;42.162;24.754;2023-07-28T16:07:17;9.90;;;3.65;;
64615;SDS011;51027;42.162;24.754;2023-07-28T16:09:42;9.07;;;3.50;;
64615;SDS011;51027;42.162;24.754;2023-07-28T16:12:10;11.77;;;3.90;;
64615;SDS011;51027;42.162;24.754;2023-07-28T16:14:36;9.30;;;3.45;;
64615;SDS011;51027;42.162;24.754;2023-07-28T16:17:03;9.73;;;3.45;;
64615;SDS011;51027;42.162;24.754;2023-07-28T16:19:29;9.05;;;3.22;;
64615;SDS011;51027;42.162;24.754;2023-07-28T16:21:54;11.85;;;3.65;;
64615;SDS011;51027;42.162;24.754;2023-07-28T16:24:23;9.95;;;3.70;;
64615;SDS011;51027;42.162;24.754;2023-07-28T16:26:48;9.13;;;3.35;;
64615;SDS011;51027;42.162;24.754;2023-07-28T16:29:14;7.97;;;3.00;;
64615;SDS011;51027;42.162;24.754;2023-07-28T16:31:39;10.05;;;3.63;;
64615;SDS011;51027;42.162;24.754;2023-07-28T16:34:05;8.25;;;3.33;;
64615;SDS011;51027;42.162;24.754;2023-07-28T16:36:30;8.55;;;3.42;;
64615;SDS011;51027;42.162;24.754;2023-07-28T16:38:55;11.38;;;3.97;;
64615;SDS011;51027;42.162;24.754;2023-07-28T16:41:21;11.10;;;4.38;;
64615;SDS011;51027;42.162;24.754;2023-07-28T16:43:46;11.25;;;3.97;;
64615;SDS011;51027;42.162;24.754;2023-07-28T16:46:12;9.25;;;3.42;;
64615;SDS011;51027;42.162;24.754;2023-07-28T16:48:37;17.38;;;7.57;;
64615;SDS011;51027;42.162;24.754;2023-07-28T16:51:03;15.98;;;4.35;;
64615;SDS011;51027;42.162;24.754;2023-07-28T16:53:28;8.35;;;3.33;;
64615;SDS011;51027;42.162;24.754;2023-07-28T16:55:54;9.30;;;3.72;;
64615;SDS011;51027;42.162;24.754;2023-07-28T16:58:19;13.10;;;4.25;;
64615;SDS011;51027;42.162;24.754;2023-07-28T17:00:44;9.45;;;3.88;;
64615;SDS011;51027;42.162;24.754;2023-07-28T17:03:10;11.80;;;3.70;;
64615;SDS011;51027;42.162;24.754;2023-07-28T17:05:35;10.85;;;3.70;;
64615;SDS011;51027;42.162;24.754;2023-07-28T17:08:00;12.50;;;3.83;;
64615;SDS011;51027;42.162;24.754;2023-07-28T17:10:27;8.75;;;3.40;;
64615;SDS011;51027;42.162;24.754;2023-07-28T17:12:53;10.63;;;3.90;;
64615;SDS011;51027;42.162;24.754;2023-07-28T17:15:19;9.27;;;3.70;;
64615;SDS011;51027;42.162;24.754;2023-07-28T17:17:44;9.32;;;3.58;;
64615;SDS011;51027;42.162;24.754;2023-07-28T17:20:10;12.07;;;3.80;;
64615;SDS011;51027;42.162;24.754;2023-07-28T17:22:36;19.42;;;9.63;;
64615;SDS011;51027;42.162;24.754;2023-07-28T17:25:02;19.50;;;6.60;;
64615;SDS011;51027;42.162;24.754;2023-07-28T17:27:27;11.73;;;4.50;;
64615;SDS011;51027;42.162;24.754;2023-07-28T17:29:53;10.13;;;4.00;;
64615;SDS011;51027;42.162;24.754;2023-07-28T17:32:18;14.82;;;4.43;;
64615;SDS011;51027;42.162;24.754;2023-07-28T17:34:44;11.02;;;3.78;;
64615;SDS011;51027;42.162;24.754;2023-07-28T17:37:09;15.43;;;4.40;;
64615;SDS011;51027;42.162;24.754;2023-07-28T17:39:35;12.68;;;4.40;;
64615;SDS011;51027;42.162;24.754;2023-07-28T17:42:00;11.35;;;4.28;;
64615;SDS011;51027;42.162;24.754;2023-07-28T17:44:26;15.57;;;4.93;;
64615;SDS011;51027;42.162;24.754;2023-07-28T17:46:51;12.88;;;4.47;;
64615;SDS011;51027;42.162;24.754;2023-07-28T17:49:17;14.90;;;4.40;;
64615;SDS011;51027;42.162;24.754;2023-07-28T17:51:42;12.35;;;4.43;;
64615;SDS011;51027;42.162;24.754;2023-07-28T17:54:08;16.40;;;5.25;;
64615;SDS011;51027;42.162;24.754;2023-07-28T17:56:33;11.57;;;4.18;;
64615;SDS011;51027;42.162;24.754;2023-07-28T17:58:59;13.68;;;4.15;;
64615;SDS011;51027;42.162;24.754;2023-07-28T18:01:24;9.68;;;3.80;;
64615;SDS011;51027;42.162;24.754;2023-07-28T18:03:50;10.98;;;3.67;;